Artemis — PFCB — position and weather

sailwx.info

Track history (hours):
 
Tides and Currents Weather Stations Pressure Air Temp Water Temp Dewpoint Dewpoint Depression Visibility Wind Speed Wind Dir Waves Ship Positions

Artemis (Netherlands)

Ship's website: http://www.tallship-company.com/artemis/gb_artemis.htm

Last reported at 2018-Dec-12 13:07 UTC. Time now 2018-Dec-18 11:23 UTC.
Position N 53°11' E 005°25'.

Length 59 m; draft 3.4 m.

Type: Sailing vessel. MMSI: 244875000.

Date/timePositionNaut miles runAvg speedWind from/ knotsBaromVisibWave heightAir tempDewpointWater temp
2018-Dec-12 13:07N 53°11' E 005°25'0 0.1
2018-Dec-12 13:00N 53°11' E 005°25'0 0.0
2018-Dec-12 12:30N 53°11' E 005°25'0 0.1
2018-Dec-12 12:00N 53°10' E 005°25'0 0.0
2018-Dec-12 11:30N 53°10' E 005°25'0 0.0
2018-Dec-12 11:00N 53°10' E 005°25'0 0.0
2018-Dec-12 10:30N 53°10' E 005°25'0 0.0
2018-Dec-12 10:00N 53°10' E 005°25'0 0.0
2018-Dec-12 09:30N 53°10' E 005°25'0 0.0
2018-Dec-12 09:00N 53°10' E 005°25'0 0.0
2018-Dec-12 08:30N 53°10' E 005°25'0 0.0
2018-Dec-12 08:00N 53°10' E 005°25'0 0.0
2018-Dec-12 07:30N 53°10' E 005°25'0 0.0
2018-Dec-12 07:00N 53°10' E 005°25'0 0.0
2018-Dec-12 06:30N 53°10' E 005°25'0 0.0
2018-Dec-12 06:00N 53°10' E 005°25'0 0.0
2018-Dec-12 05:30N 53°10' E 005°25'0 0.0
2018-Dec-12 05:00N 53°10' E 005°25'0 0.0
2018-Dec-12 04:30N 53°10' E 005°25'0 0.0
2018-Dec-12 04:00N 53°10' E 005°25'0 0.0
2018-Dec-12 03:30N 53°10' E 005°25'0 0.0
2018-Dec-12 03:00N 53°10' E 005°25'0 0.0
2018-Dec-12 02:30N 53°10' E 005°25'0 0.0
2018-Dec-12 02:00N 53°10' E 005°25'0 0.0
2018-Dec-12 01:30N 53°10' E 005°25'0 0.0
2018-Dec-12 01:00N 53°10' E 005°25'0 0.0
2018-Dec-12 00:30N 53°10' E 005°25'0 0.0
2018-Dec-12 00:00N 53°10' E 005°25'0 0.0
2018-Dec-11 23:30N 53°10' E 005°25'0 0.0
2018-Dec-11 23:00N 53°10' E 005°25'0 0.0
2018-Dec-11 22:30N 53°10' E 005°25'0 0.0
2018-Dec-11 22:00N 53°10' E 005°25'0 0.0
2018-Dec-11 21:30N 53°10' E 005°25'0 0.0
2018-Dec-11 21:00N 53°10' E 005°25'0 0.0
2018-Dec-11 20:30N 53°10' E 005°25'0 0.0
2018-Dec-11 20:00N 53°10' E 005°25'0 0.0
2018-Dec-11 19:30N 53°10' E 005°25'0 0.0
2018-Dec-11 19:00N 53°10' E 005°25'0 0.0
2018-Dec-11 18:30N 53°10' E 005°25'0 0.0
2018-Dec-11 18:00N 53°10' E 005°25'0 0.0
2018-Dec-11 17:30N 53°10' E 005°25'0 0.0
2018-Dec-11 17:00N 53°10' E 005°25'0 0.0
2018-Dec-11 16:30N 53°10' E 005°25'0 0.0
2018-Dec-11 16:00N 53°10' E 005°25'0 0.0
2018-Dec-11 15:30N 53°10' E 005°25'0 0.0
2018-Dec-11 15:00N 53°10' E 005°25'0 0.0
2018-Dec-11 14:30N 53°10' E 005°25'0 0.0
2018-Dec-11 14:00N 53°10' E 005°25'0 0.0
2018-Dec-11 13:30N 53°10' E 005°25'0 0.0
2018-Dec-11 13:00N 53°10' E 005°25'0 0.0
2018-Dec-11 12:30N 53°10' E 005°25'0 0.0
2018-Dec-11 12:00N 53°10' E 005°25'3 5.3
2018-Dec-11 11:30N 53°08' E 005°23'4 7.4
2018-Dec-11 11:00N 53°05' E 005°20'1 1.6
2018-Dec-11 10:30N 53°04' E 005°20'2 4.1
2018-Dec-11 10:00N 53°02' E 005°21'4 7.9
2018-Dec-11 09:30N 52°58' E 005°19'4 8.3
2018-Dec-11 09:00N 52°54' E 005°19'4 8.4
2018-Dec-11 08:30N 52°50' E 005°19'4 7.4
2018-Dec-11 08:00N 52°46' E 005°20'4 7.2
2018-Dec-11 07:30N 52°43' E 005°24'4 7.0
2018-Dec-11 07:00N 52°42' E 005°29'4 7.1
2018-Dec-11 06:30N 52°39' E 005°34'1 2.9
2018-Dec-11 06:00N 52°39' E 005°36'0 0.4
2018-Dec-11 05:30N 52°40' E 005°36'0 0.0
2018-Dec-11 05:00N 52°40' E 005°36'0 0.0
2018-Dec-11 04:30N 52°40' E 005°36'0 0.0
2018-Dec-11 04:00N 52°40' E 005°36'0 0.0
2018-Dec-11 03:30N 52°40' E 005°36'0 0.0
2018-Dec-11 03:00N 52°40' E 005°36'0 0.0
2018-Dec-11 02:30N 52°40' E 005°36'0 0.0
2018-Dec-11 02:00N 52°40' E 005°36'0 0.0
2018-Dec-11 01:30N 52°40' E 005°36'0 0.0
2018-Dec-11 01:00N 52°40' E 005°36'0 0.0
2018-Dec-11 00:30N 52°40' E 005°36'0 0.0
2018-Dec-11 00:00N 52°40' E 005°36'0 0.0
2018-Dec-10 23:30N 52°40' E 005°36'0 0.0
2018-Dec-10 23:00N 52°40' E 005°36'0 0.0
2018-Dec-10 22:30N 52°40' E 005°36'0 0.0
2018-Dec-10 22:00N 52°40' E 005°36'0 0.0
2018-Dec-10 21:30N 52°40' E 005°36'0 0.0
2018-Dec-10 21:00N 52°40' E 005°36'0 0.0
2018-Dec-10 20:30N 52°40' E 005°36'0 0.0
2018-Dec-10 20:00N 52°40' E 005°36'0 0.0
2018-Dec-10 19:30N 52°40' E 005°36'0 0.0
2018-Dec-10 19:00N 52°40' E 005°36'0 0.0
2018-Dec-10 18:30N 52°40' E 005°36'0 0.0
2018-Dec-10 18:00N 52°40' E 005°36'0 0.0
2018-Dec-10 17:30N 52°40' E 005°36'0 0.0
2018-Dec-10 17:00N 52°40' E 005°36'0 0.0
2018-Dec-10 16:30N 52°40' E 005°36'0 0.0
2018-Dec-10 16:00N 52°40' E 005°36'0 0.0
2018-Dec-10 15:30N 52°40' E 005°36'0 0.0
2018-Dec-10 15:00N 52°40' E 005°36'0 0.0
2018-Dec-10 14:30N 52°40' E 005°36'0 0.0
2018-Dec-10 14:00N 52°40' E 005°36'0 0.0
2018-Dec-10 13:30N 52°40' E 005°36'0 0.0
2018-Dec-10 13:00N 52°40' E 005°36'0 0.0
2018-Dec-10 12:30N 52°40' E 005°36'0 0.0
2018-Dec-10 12:00N 52°40' E 005°36'0 0.0
2018-Dec-10 11:30N 52°40' E 005°36'0 0.0
2018-Dec-10 11:00N 52°40' E 005°36'0 0.0
2018-Dec-10 10:30N 52°40' E 005°36'0 0.0
2018-Dec-10 10:00N 52°40' E 005°36'0 0.0
2018-Dec-10 09:30N 52°40' E 005°36'0 0.0
2018-Dec-10 09:00N 52°40' E 005°36'0 0.0
2018-Dec-10 08:30N 52°40' E 005°36'0 0.0
2018-Dec-10 08:00N 52°40' E 005°36'0 0.0
2018-Dec-10 07:30N 52°40' E 005°36'0 0.0
2018-Dec-10 07:00N 52°40' E 005°36'0 0.0
2018-Dec-10 06:30N 52°40' E 005°36'0 0.0
2018-Dec-10 06:00N 52°40' E 005°36'0 0.0
2018-Dec-10 05:30N 52°40' E 005°36'0 0.0
2018-Dec-10 05:00N 52°40' E 005°36'0 0.0
2018-Dec-10 04:30N 52°40' E 005°36'0 0.0
2018-Dec-10 04:00N 52°40' E 005°36'0 0.0
2018-Dec-10 03:30N 52°40' E 005°36'0 0.0
2018-Dec-10 02:30N 52°40' E 005°36'0 0.0
2018-Dec-10 02:00N 52°40' E 005°36'0 0.0
2018-Dec-10 01:30N 52°40' E 005°36'0 0.0
2018-Dec-10 01:00N 52°40' E 005°36'0 0.0
2018-Dec-10 00:30N 52°40' E 005°36'0 0.0
2018-Dec-10 00:00N 52°40' E 005°36'0 0.0
2018-Dec-09 23:30N 52°40' E 005°36'0 0.0
2018-Dec-09 23:00N 52°40' E 005°36'0 0.0
2018-Dec-09 22:30N 52°40' E 005°36'0 0.0
2018-Dec-09 22:00N 52°40' E 005°36'0 0.0
2018-Dec-09 21:30N 52°40' E 005°36'0 0.0
2018-Dec-09 21:00N 52°40' E 005°36'0 0.0
2018-Dec-09 20:30N 52°40' E 005°36'0 0.0
2018-Dec-09 20:00N 52°40' E 005°36'0 0.0
2018-Dec-09 19:30N 52°40' E 005°36'0 0.0
2018-Dec-09 19:00N 52°40' E 005°36'0 0.0
2018-Dec-09 18:30N 52°40' E 005°36'0 0.0
2018-Dec-09 18:00N 52°40' E 005°36'0 0.0
2018-Dec-09 17:30N 52°40' E 005°36'0 0.0
2018-Dec-09 17:00N 52°40' E 005°36'0 0.0
2018-Dec-09 16:30N 52°40' E 005°36'0 0.0
2018-Dec-09 16:00N 52°40' E 005°36'0 0.0
2018-Dec-09 15:30N 52°40' E 005°36'0 0.0
2018-Dec-09 15:00N 52°40' E 005°36'0 0.0
2018-Dec-09 14:30N 52°40' E 005°36'0 0.0
2018-Dec-09 14:00N 52°40' E 005°36'0 0.0
2018-Dec-09 13:30N 52°40' E 005°36'0 0.0
2018-Dec-09 13:00N 52°40' E 005°36'0 0.0
2018-Dec-09 12:30N 52°40' E 005°36'0 0.0
2018-Dec-09 12:00N 52°40' E 005°36'0 0.0
2018-Dec-09 11:30N 52°40' E 005°36'0 0.0
2018-Dec-09 11:00N 52°40' E 005°36'0 0.0
2018-Dec-09 10:30N 52°40' E 005°36'0 0.0
2018-Dec-09 10:00N 52°40' E 005°36'0 0.0
2018-Dec-09 09:30N 52°40' E 005°36'0 0.0
2018-Dec-09 09:00N 52°40' E 005°36'0 0.0
2018-Dec-09 08:30N 52°40' E 005°36'0 0.0
2018-Dec-09 08:00N 52°40' E 005°36'0 0.0
2018-Dec-09 07:30N 52°40' E 005°36'0 0.0
2018-Dec-09 07:00N 52°40' E 005°36'0 0.0
2018-Dec-09 06:30N 52°40' E 005°36'0 0.0
2018-Dec-09 06:00N 52°40' E 005°36'0 0.0
2018-Dec-09 05:30N 52°40' E 005°36'0 0.0
2018-Dec-09 05:00N 52°40' E 005°36'0 0.0
2018-Dec-09 04:30N 52°40' E 005°36'0 0.0
2018-Dec-09 04:00N 52°40' E 005°36'0 0.0
2018-Dec-09 03:30N 52°40' E 005°36'0 0.0
2018-Dec-09 03:00N 52°40' E 005°36'0 0.0
2018-Dec-09 02:30N 52°40' E 005°36'0 0.0
2018-Dec-09 02:00N 52°40' E 005°36'0 0.0
2018-Dec-09 01:30N 52°40' E 005°36'0 0.0
2018-Dec-09 01:00N 52°40' E 005°36'0 0.0
2018-Dec-09 00:30N 52°40' E 005°36'0 0.0
2018-Dec-09 00:00N 52°40' E 005°36'0 0.0
2018-Dec-08 23:30N 52°40' E 005°36'0 0.0
2018-Dec-08 23:00N 52°40' E 005°36'0 0.0
2018-Dec-08 22:30N 52°40' E 005°36'0 0.0
2018-Dec-08 22:00N 52°40' E 005°36'0 0.0
2018-Dec-08 21:30N 52°40' E 005°36'0 0.0
2018-Dec-08 21:00N 52°40' E 005°36'0 0.0
2018-Dec-08 20:30N 52°40' E 005°36'0 0.0
2018-Dec-08 20:00N 52°40' E 005°36'0 0.0
2018-Dec-08 19:30N 52°40' E 005°36'0 0.0
2018-Dec-08 19:00N 52°40' E 005°36'0 0.0
2018-Dec-08 18:30N 52°40' E 005°36'0 0.0
2018-Dec-08 18:00N 52°40' E 005°36'0 0.0
2018-Dec-08 17:30N 52°40' E 005°36'0 0.0
2018-Dec-08 17:00N 52°40' E 005°36'0 0.0
2018-Dec-08 16:30N 52°40' E 005°36'0 0.0
2018-Dec-08 16:00N 52°40' E 005°36'0 0.0
2018-Dec-08 15:30N 52°40' E 005°36'0 0.0
2018-Dec-08 15:00N 52°40' E 005°36'0 0.0
2018-Dec-08 14:30N 52°40' E 005°36'0 0.0
2018-Dec-08 14:00N 52°40' E 005°36'0 0.0
2018-Dec-08 13:30N 52°40' E 005°36'0 0.0
2018-Dec-08 13:00N 52°40' E 005°36'0 0.0
2018-Dec-08 12:30N 52°40' E 005°36'0 0.0
2018-Dec-08 12:00N 52°40' E 005°36'0 0.0
2018-Dec-08 11:30N 52°40' E 005°36'0 0.0
2018-Dec-08 11:00N 52°40' E 005°36'0 0.0
2018-Dec-08 10:30N 52°40' E 005°36'0 0.0
2018-Dec-08 10:00N 52°40' E 005°36'0 0.0
2018-Dec-08 09:30N 52°40' E 005°36'0 0.0
2018-Dec-08 09:00N 52°40' E 005°36'0 0.0
2018-Dec-08 08:30N 52°40' E 005°36'0 0.0
2018-Dec-08 08:00N 52°40' E 005°36'0 0.0
2018-Dec-08 07:30N 52°40' E 005°36'0 0.0
2018-Dec-08 07:00N 52°40' E 005°36'0 0.0
2018-Dec-08 06:30N 52°40' E 005°36'0 0.0
2018-Dec-08 06:00N 52°40' E 005°36'0 0.0
2018-Dec-08 05:30N 52°40' E 005°36'0 0.0
2018-Dec-08 05:00N 52°40' E 005°36'0 0.0
2018-Dec-08 04:30N 52°40' E 005°36'0 0.0
2018-Dec-08 04:00N 52°40' E 005°36'0 0.0
2018-Dec-08 03:30N 52°40' E 005°36'0 0.0
2018-Dec-08 03:00N 52°40' E 005°36'0 0.0
2018-Dec-08 02:30N 52°40' E 005°36'0 0.0
2018-Dec-08 02:00N 52°40' E 005°36'0 0.0
2018-Dec-08 01:30N 52°40' E 005°36'0 0.0
2018-Dec-08 01:00N 52°40' E 005°36'0 0.0
2018-Dec-08 00:30N 52°40' E 005°36'0 0.0
2018-Dec-08 00:00N 52°40' E 005°36'0 0.0
2018-Dec-07 23:30N 52°40' E 005°36'0 0.0
2018-Dec-07 23:00N 52°40' E 005°36'0 0.0
2018-Dec-07 22:30N 52°40' E 005°36'0 0.0
2018-Dec-07 22:00N 52°40' E 005°36'0 0.0
2018-Dec-07 21:30N 52°40' E 005°36'0 0.0
2018-Dec-07 21:00N 52°40' E 005°36'0 0.0
2018-Dec-07 20:30N 52°40' E 005°36'0 0.0
2018-Dec-07 20:00N 52°40' E 005°36'0 0.0
2018-Dec-07 19:30N 52°40' E 005°36'0 0.0
2018-Dec-07 19:00N 52°40' E 005°36'0 0.0
2018-Dec-07 18:30N 52°40' E 005°36'0 0.0
2018-Dec-07 18:00N 52°40' E 005°36'0 0.0
2018-Dec-07 17:30N 52°40' E 005°36'0 0.0
2018-Dec-07 17:00N 52°40' E 005°36'0 0.0
2018-Dec-07 16:30N 52°40' E 005°36'0 0.0
2018-Dec-07 16:00N 52°40' E 005°36'0 0.0
2018-Dec-07 15:30N 52°40' E 005°36'0 0.0
2018-Dec-07 15:00N 52°40' E 005°36'0 0.0
2018-Dec-07 14:30N 52°40' E 005°36'0 0.0
2018-Dec-07 14:00N 52°40' E 005°36'0 0.0
2018-Dec-07 13:30N 52°40' E 005°36'0 0.0
2018-Dec-07 13:00N 52°40' E 005°36'0 0.0
2018-Dec-07 12:30N 52°40' E 005°36'0 0.0
2018-Dec-07 12:00N 52°40' E 005°36'0 0.0
2018-Dec-07 11:30N 52°40' E 005°36'0 0.0
2018-Dec-07 11:00N 52°40' E 005°36'0 0.0
2018-Dec-07 10:30N 52°40' E 005°36'0 0.0
2018-Dec-07 10:00N 52°40' E 005°36'0 0.0
2018-Dec-07 09:30N 52°40' E 005°36'0 0.0
2018-Dec-07 09:00N 52°40' E 005°36'0 0.0
2018-Dec-07 08:30N 52°40' E 005°36'0 0.0
2018-Dec-07 08:00N 52°40' E 005°36'0 0.0
2018-Dec-07 07:30N 52°40' E 005°36'0 0.0
2018-Dec-07 07:00N 52°40' E 005°36'0 0.0
2018-Dec-07 06:30N 52°40' E 005°36'0 0.0
2018-Dec-07 06:00N 52°40' E 005°36'0 0.0
2018-Dec-07 05:30N 52°40' E 005°36'0 0.0
2018-Dec-07 05:00N 52°40' E 005°36'0 0.0
2018-Dec-07 04:30N 52°40' E 005°36'0 0.0
2018-Dec-07 04:00N 52°40' E 005°36'0 0.0
2018-Dec-07 03:30N 52°40' E 005°36'0 0.0
2018-Dec-07 02:30N 52°40' E 005°36'0 0.0
2018-Dec-07 02:00N 52°40' E 005°36'0 0.0
2018-Dec-07 01:30N 52°40' E 005°36'0 0.0
2018-Dec-07 01:00N 52°40' E 005°36'0 0.0
2018-Dec-07 00:30N 52°40' E 005°36'0 0.0
2018-Dec-07 00:00N 52°40' E 005°36'0 0.0
2018-Dec-06 23:30N 52°40' E 005°36'0 0.0
2018-Dec-06 23:00N 52°40' E 005°36'0 0.0
2018-Dec-06 22:30N 52°40' E 005°36'0 0.0
2018-Dec-06 22:00N 52°40' E 005°36'0 0.0
2018-Dec-06 21:30N 52°40' E 005°36'0 0.0
2018-Dec-06 21:00N 52°40' E 005°36'0 0.0
2018-Dec-06 20:30N 52°40' E 005°36'0 0.0
2018-Dec-06 20:00N 52°40' E 005°36'0 0.0
2018-Dec-06 19:30N 52°40' E 005°36'0 0.0
2018-Dec-06 19:00N 52°40' E 005°36'0 0.0
2018-Dec-06 18:30N 52°40' E 005°36'0 0.0
2018-Dec-06 18:00N 52°40' E 005°36'0 0.0
2018-Dec-06 17:30N 52°40' E 005°36'0 0.0
2018-Dec-06 17:00N 52°40' E 005°36'0 0.0
2018-Dec-06 16:30N 52°40' E 005°36'0 0.0
2018-Dec-06 16:00N 52°40' E 005°36'0 0.0
2018-Dec-06 15:30N 52°40' E 005°36'0 0.0
2018-Dec-06 15:00N 52°40' E 005°36'0 0.0
2018-Dec-06 14:30N 52°40' E 005°36'0 0.0
2018-Dec-06 14:00N 52°40' E 005°36'0 0.0
2018-Dec-06 13:30N 52°40' E 005°36'0 0.0
2018-Dec-06 13:00N 52°40' E 005°36'0 0.0
2018-Dec-06 12:30N 52°40' E 005°36'0 0.0
2018-Dec-06 12:00N 52°40' E 005°36'0 0.0
2018-Dec-06 11:30N 52°40' E 005°36'0 0.0
2018-Dec-06 11:00N 52°40' E 005°36'0 0.0
2018-Dec-06 10:30N 52°40' E 005°36'0 0.0
2018-Dec-06 10:00N 52°40' E 005°36'0 0.0
2018-Dec-06 09:30N 52°40' E 005°36'0 0.0
2018-Dec-06 09:00N 52°40' E 005°36'0 0.0
2018-Dec-06 08:30N 52°40' E 005°36'0 0.0
2018-Dec-06 08:00N 52°40' E 005°36'0 0.0
2018-Dec-06 07:30N 52°40' E 005°36'0 0.0
2018-Dec-06 07:00N 52°40' E 005°36'0 0.0
2018-Dec-06 06:30N 52°40' E 005°36'0 0.0
2018-Dec-06 06:00N 52°40' E 005°36'0 0.0
2018-Dec-06 05:30N 52°40' E 005°36'0 0.0
2018-Dec-06 05:00N 52°40' E 005°36'0 0.0
2018-Dec-06 04:30N 52°40' E 005°36'0 0.0
2018-Dec-06 04:00N 52°40' E 005°36'0 0.0
2018-Dec-06 03:00N 52°40' E 005°36'0 0.0
2018-Dec-06 02:30N 52°40' E 005°36'0 0.0
2018-Dec-06 02:00N 52°40' E 005°36'0 0.0
2018-Dec-06 01:30N 52°40' E 005°36'0 0.0
2018-Dec-06 01:00N 52°40' E 005°36'0 0.0
2018-Dec-06 00:30N 52°40' E 005°36'0 0.0
2018-Dec-06 00:00N 52°40' E 005°36'0 0.0
2018-Dec-05 23:30N 52°40' E 005°36'0 0.0
2018-Dec-05 23:00N 52°40' E 005°36'0 0.0
2018-Dec-05 22:30N 52°40' E 005°36'0 0.0
2018-Dec-05 22:00N 52°40' E 005°36'0 0.0
2018-Dec-05 21:30N 52°40' E 005°36'0 0.0
2018-Dec-05 21:00N 52°40' E 005°36'0 0.0
2018-Dec-05 20:30N 52°40' E 005°36'0 0.0
2018-Dec-05 20:00N 52°40' E 005°36'0 0.0
2018-Dec-05 19:30N 52°40' E 005°36'0 0.0
2018-Dec-05 19:00N 52°40' E 005°36'0 0.0
2018-Dec-05 18:30N 52°40' E 005°36'0 0.0
2018-Dec-05 18:00N 52°40' E 005°36'0 0.0
2018-Dec-05 17:30N 52°40' E 005°36'0 0.0
2018-Dec-05 17:00N 52°40' E 005°36'0 0.0
2018-Dec-05 16:30N 52°40' E 005°36'0 0.0
2018-Dec-05 16:00N 52°40' E 005°36'0 0.0
2018-Dec-05 15:30N 52°40' E 005°36'0 0.0
2018-Dec-05 15:00N 52°40' E 005°36'0 0.0
2018-Dec-05 14:30N 52°40' E 005°36'0 0.0
2018-Dec-05 14:00N 52°40' E 005°36'0 0.0
2018-Dec-05 13:30N 52°40' E 005°36'0 0.0
2018-Dec-05 13:00N 52°40' E 005°36'0 0.0
2018-Dec-05 12:30N 52°40' E 005°36'0 0.0
2018-Dec-05 12:00N 52°40' E 005°36'0 0.0
2018-Dec-05 11:30N 52°40' E 005°36'0 0.0
2018-Dec-05 11:00N 52°40' E 005°36'0 0.0
2018-Dec-05 10:30N 52°40' E 005°36'0 0.0
2018-Dec-05 10:00N 52°40' E 005°36'0 0.0
2018-Dec-05 09:30N 52°40' E 005°36'0 0.0
2018-Dec-05 09:00N 52°40' E 005°36'0 0.0
2018-Dec-05 08:30N 52°40' E 005°36'0 0.0
2018-Dec-05 08:00N 52°40' E 005°36'0 0.0
2018-Dec-05 07:30N 52°40' E 005°36'0 0.0
2018-Dec-05 07:00N 52°40' E 005°36'0 0.0
2018-Dec-05 06:30N 52°40' E 005°36'0 0.0
2018-Dec-05 06:00N 52°40' E 005°36'0 0.0
2018-Dec-05 05:30N 52°40' E 005°36'0 0.0
2018-Dec-05 05:00N 52°40' E 005°36'0 0.0
2018-Dec-05 04:30N 52°40' E 005°36'0 0.0
2018-Dec-05 04:00N 52°40' E 005°36'0 0.0
2018-Dec-05 03:30N 52°40' E 005°36'0 0.0
2018-Dec-05 03:00N 52°40' E 005°36'0 0.0
2018-Dec-05 02:30N 52°40' E 005°36'0 0.0
2018-Dec-05 02:00N 52°40' E 005°36'0 0.0
2018-Dec-05 01:30N 52°40' E 005°36'0 0.0
2018-Dec-05 01:00N 52°40' E 005°36'0 0.0
2018-Dec-05 00:30N 52°40' E 005°36'0 0.0
2018-Dec-05 00:00N 52°40' E 005°36'0 0.0
2018-Dec-04 23:30N 52°40' E 005°36'0 0.0
2018-Dec-04 23:00N 52°40' E 005°36'0 0.0
2018-Dec-04 22:30N 52°40' E 005°36'0 0.0
2018-Dec-04 22:00N 52°40' E 005°36'0 0.0
2018-Dec-04 21:30N 52°40' E 005°36'0 0.0
2018-Dec-04 21:00N 52°40' E 005°36'0 0.0
2018-Dec-04 20:30N 52°40' E 005°36'0 0.0
2018-Dec-04 20:00N 52°40' E 005°36'0 0.0
2018-Dec-04 19:30N 52°40' E 005°36'0 0.0
2018-Dec-04 19:00N 52°40' E 005°36'0 0.0
2018-Dec-04 18:30N 52°40' E 005°36'0 0.0
2018-Dec-04 18:00N 52°40' E 005°36'0 0.0
2018-Dec-04 17:30N 52°40' E 005°36'0 0.0
2018-Dec-04 17:00N 52°40' E 005°36'0 0.0
2018-Dec-04 16:30N 52°40' E 005°36'0 0.0
2018-Dec-04 16:00N 52°40' E 005°36'0 0.0
2018-Dec-04 15:30N 52°40' E 005°36'0 0.0
2018-Dec-04 15:00N 52°40' E 005°36'0 0.0
2018-Dec-04 14:30N 52°40' E 005°36'0 0.0
2018-Dec-04 14:00N 52°40' E 005°36'0 0.0
2018-Dec-04 13:30N 52°40' E 005°36'0 0.0
2018-Dec-04 13:00N 52°40' E 005°36'0 0.0
2018-Dec-04 12:30N 52°40' E 005°36'0 0.0
2018-Dec-04 12:00N 52°40' E 005°36'0 0.0
2018-Dec-04 11:30N 52°40' E 005°36'0 0.0
2018-Dec-04 11:00N 52°40' E 005°36'0 0.0
2018-Dec-04 10:30N 52°40' E 005°36'0 0.0
2018-Dec-04 10:00N 52°40' E 005°36'0 0.0
2018-Dec-04 09:30N 52°40' E 005°36'0 0.0
2018-Dec-04 09:00N 52°40' E 005°36'0 0.0
2018-Dec-04 08:30N 52°40' E 005°36'0 0.0
2018-Dec-04 08:00N 52°40' E 005°36'0 0.0
2018-Dec-04 07:30N 52°40' E 005°36'0 0.0
2018-Dec-04 07:00N 52°40' E 005°36'0 0.0
2018-Dec-04 06:30N 52°40' E 005°36'0 0.0
2018-Dec-04 06:00N 52°40' E 005°36'0 0.0
2018-Dec-04 05:30N 52°40' E 005°36'0 0.0
2018-Dec-04 05:00N 52°40' E 005°36'0 0.0
2018-Dec-04 04:30N 52°40' E 005°36'0 0.0
2018-Dec-04 04:00N 52°40' E 005°36'0 0.0
2018-Dec-04 03:30N 52°40' E 005°36'0 0.0
2018-Dec-04 03:00N 52°40' E 005°36'0 0.0
2018-Dec-04 02:30N 52°40' E 005°36'0 0.0
2018-Dec-04 02:00N 52°40' E 005°36'0 0.0
2018-Dec-04 01:30N 52°40' E 005°36'0 0.0
2018-Dec-04 01:00N 52°40' E 005°36'0 0.0
2018-Dec-04 00:30N 52°40' E 005°36'0 0.0
2018-Dec-04 00:00N 52°40' E 005°36'0 0.0
2018-Dec-03 23:30N 52°40' E 005°36'0 0.0
2018-Dec-03 23:00N 52°40' E 005°36'0 0.0
2018-Dec-03 22:30N 52°40' E 005°36'0 0.0
2018-Dec-03 22:00N 52°40' E 005°36'0 0.0
2018-Dec-03 21:30N 52°40' E 005°36'0 0.0
2018-Dec-03 21:00N 52°40' E 005°36'0 0.0
2018-Dec-03 20:30N 52°40' E 005°36'0 0.0
2018-Dec-03 20:00N 52°40' E 005°36'0 0.0
2018-Dec-03 19:30N 52°40' E 005°36'0 0.0
2018-Dec-03 19:00N 52°40' E 005°36'0 0.0
2018-Dec-03 18:30N 52°40' E 005°36'0 0.0
2018-Dec-03 18:00N 52°40' E 005°36'0 0.0
2018-Dec-03 17:30N 52°40' E 005°36'0 0.0
2018-Dec-03 17:00N 52°40' E 005°36'0 0.0
2018-Dec-03 16:30N 52°40' E 005°36'0 0.0
2018-Dec-03 16:00N 52°40' E 005°36'0 0.1
2018-Dec-03 15:28N 52°40' E 005°36'0 0.0
2018-Dec-03 14:58N 52°40' E 005°36'0 0.0
2018-Dec-03 14:28N 52°40' E 005°36'0 0.0
2018-Dec-03 13:58N 52°40' E 005°36'0 0.0
2018-Dec-03 13:28N 52°40' E 005°36'0 0.0
2018-Dec-03 13:00N 52°40' E 005°36'2 3.2
2018-Dec-03 12:30N 52°39' E 005°33'4 7.3
2018-Dec-03 12:00N 52°42' E 005°29'4 7.3
2018-Dec-03 11:31N 52°44' E 005°24'4 7.2
2018-Dec-03 11:01N 52°46' E 005°20'3 6.2
2018-Dec-03 10:31N 52°49' E 005°18'3 6.3
2018-Dec-03 10:01N 52°53' E 005°19'3 6.3
2018-Dec-03 09:30N 52°56' E 005°19'3 6.4
2018-Dec-03 09:01N 52°59' E 005°19'3 5.9
2018-Dec-03 08:31N 53°02' E 005°21'2 4.1
2018-Dec-03 07:58N 53°04' E 005°20'0 0.0
2018-Dec-03 07:28N 53°04' E 005°20'0 0.0
2018-Dec-03 06:58N 53°04' E 005°20'0 0.0
2018-Dec-03 06:28N 53°04' E 005°20'0 0.0
2018-Dec-03 05:58N 53°04' E 005°20'0 0.0
2018-Dec-03 05:28N 53°04' E 005°20'0 0.0
2018-Dec-03 04:58N 53°04' E 005°20'0 0.0
2018-Dec-03 04:28N 53°04' E 005°20'0 0.0
2018-Dec-03 03:58N 53°04' E 005°20'0 0.0
2018-Dec-03 03:28N 53°04' E 005°20'0 0.0
2018-Dec-03 02:58N 53°04' E 005°20'0 0.0
2018-Dec-03 02:28N 53°04' E 005°20'0 0.0
2018-Dec-03 01:58N 53°04' E 005°20'0 0.0
2018-Dec-03 01:28N 53°04' E 005°20'0 0.0
2018-Dec-03 00:55N 53°04' E 005°20'0 0.0
2018-Dec-03 00:28N 53°04' E 005°20'0 0.0
2018-Dec-02 23:58N 53°04' E 005°20'0 0.0
2018-Dec-02 23:28N 53°04' E 005°20'0 0.0
2018-Dec-02 22:58N 53°04' E 005°20'0 0.0
2018-Dec-02 22:28N 53°04' E 005°20'0 0.0
2018-Dec-02 21:58N 53°04' E 005°20'0 0.0
2018-Dec-02 21:28N 53°04' E 005°20'0 0.0
2018-Dec-02 20:58N 53°04' E 005°20'0 0.0
2018-Dec-02 20:28N 53°04' E 005°20'0 0.0
2018-Dec-02 19:58N 53°04' E 005°20'0 0.0
2018-Dec-02 19:28N 53°04' E 005°20'0 0.0
2018-Dec-02 18:58N 53°04' E 005°20'0 0.0
2018-Dec-02 18:28N 53°04' E 005°20'0 0.0
2018-Dec-02 17:58N 53°04' E 005°20'0 0.0
2018-Dec-02 17:28N 53°04' E 005°20'0 0.0
2018-Dec-02 16:58N 53°04' E 005°20'0 0.0
2018-Dec-02 16:28N 53°04' E 005°20'0 0.3
2018-Dec-02 16:00N 53°04' E 005°20'1 1.7
2018-Dec-02 15:30N 53°05' E 005°20'3 5.4
2018-Dec-02 15:00N 53°07' E 005°22'3 6.3
2018-Dec-02 14:30N 53°10' E 005°24'1 1.2
2018-Dec-02 13:58N 53°11' E 005°25'0 0.0
2018-Dec-02 13:28N 53°11' E 005°25'  
Track history (hours):
 
Tides and Currents Weather Stations Pressure Air Temp Water Temp Dewpoint Dewpoint Depression Visibility Wind Speed Wind Dir Waves Ship Positions

Artemis (Netherlands)

Ship's website: http://www.tallship-company.com/artemis/gb_artemis.htm

Last reported at 2018-Dec-12 13:07 UTC. Time now 2018-Dec-18 11:23 UTC.
Position N 53°11' E 005°25'.

Length 59 m; draft 3.4 m.

Type: Sailing vessel. MMSI: 244875000.

Date/timePositionNaut miles runAvg speedWind from/ knotsBaromVisibWave heightAir tempDewpointWater temp
2018-Dec-12 13:07N 53°11' E 005°25'0 0.1
2018-Dec-12 13:00N 53°11' E 005°25'0 0.0
2018-Dec-12 12:30N 53°11' E 005°25'0 0.1
2018-Dec-12 12:00N 53°10' E 005°25'0 0.0
2018-Dec-12 11:30N 53°10' E 005°25'0 0.0
2018-Dec-12 11:00N 53°10' E 005°25'0 0.0
2018-Dec-12 10:30N 53°10' E 005°25'0 0.0
2018-Dec-12 10:00N 53°10' E 005°25'0 0.0
2018-Dec-12 09:30N 53°10' E 005°25'0 0.0
2018-Dec-12 09:00N 53°10' E 005°25'0 0.0
2018-Dec-12 08:30N 53°10' E 005°25'0 0.0
2018-Dec-12 08:00N 53°10' E 005°25'0 0.0
2018-Dec-12 07:30N 53°10' E 005°25'0 0.0
2018-Dec-12 07:00N 53°10' E 005°25'0 0.0
2018-Dec-12 06:30N 53°10' E 005°25'0 0.0
2018-Dec-12 06:00N 53°10' E 005°25'0 0.0
2018-Dec-12 05:30N 53°10' E 005°25'0 0.0
2018-Dec-12 05:00N 53°10' E 005°25'0 0.0
2018-Dec-12 04:30N 53°10' E 005°25'0 0.0
2018-Dec-12 04:00N 53°10' E 005°25'0 0.0
2018-Dec-12 03:30N 53°10' E 005°25'0 0.0
2018-Dec-12 03:00N 53°10' E 005°25'0 0.0
2018-Dec-12 02:30N 53°10' E 005°25'0 0.0
2018-Dec-12 02:00N 53°10' E 005°25'0 0.0
2018-Dec-12 01:30N 53°10' E 005°25'0 0.0
2018-Dec-12 01:00N 53°10' E 005°25'0 0.0
2018-Dec-12 00:30N 53°10' E 005°25'0 0.0
2018-Dec-12 00:00N 53°10' E 005°25'0 0.0
2018-Dec-11 23:30N 53°10' E 005°25'0 0.0
2018-Dec-11 23:00N 53°10' E 005°25'0 0.0
2018-Dec-11 22:30N 53°10' E 005°25'0 0.0
2018-Dec-11 22:00N 53°10' E 005°25'0 0.0
2018-Dec-11 21:30N 53°10' E 005°25'0 0.0
2018-Dec-11 21:00N 53°10' E 005°25'0 0.0
2018-Dec-11 20:30N 53°10' E 005°25'0 0.0
2018-Dec-11 20:00N 53°10' E 005°25'0 0.0
2018-Dec-11 19:30N 53°10' E 005°25'0 0.0
2018-Dec-11 19:00N 53°10' E 005°25'0 0.0
2018-Dec-11 18:30N 53°10' E 005°25'0 0.0
2018-Dec-11 18:00N 53°10' E 005°25'0 0.0
2018-Dec-11 17:30N 53°10' E 005°25'0 0.0
2018-Dec-11 17:00N 53°10' E 005°25'0 0.0
2018-Dec-11 16:30N 53°10' E 005°25'0 0.0
2018-Dec-11 16:00N 53°10' E 005°25'0 0.0
2018-Dec-11 15:30N 53°10' E 005°25'0 0.0
2018-Dec-11 15:00N 53°10' E 005°25'0 0.0
2018-Dec-11 14:30N 53°10' E 005°25'0 0.0
2018-Dec-11 14:00N 53°10' E 005°25'0 0.0
2018-Dec-11 13:30N 53°10' E 005°25'0 0.0
2018-Dec-11 13:00N 53°10' E 005°25'0 0.0
2018-Dec-11 12:30N 53°10' E 005°25'0 0.0
2018-Dec-11 12:00N 53°10' E 005°25'3 5.3
2018-Dec-11 11:30N 53°08' E 005°23'4 7.4
2018-Dec-11 11:00N 53°05' E 005°20'1 1.6
2018-Dec-11 10:30N 53°04' E 005°20'2 4.1
2018-Dec-11 10:00N 53°02' E 005°21'4 7.9
2018-Dec-11 09:30N 52°58' E 005°19'4 8.3
2018-Dec-11 09:00N 52°54' E 005°19'4 8.4
2018-Dec-11 08:30N 52°50' E 005°19'4 7.4
2018-Dec-11 08:00N 52°46' E 005°20'4 7.2
2018-Dec-11 07:30N 52°43' E 005°24'4 7.0
2018-Dec-11 07:00N 52°42' E 005°29'4 7.1
2018-Dec-11 06:30N 52°39' E 005°34'1 2.9
2018-Dec-11 06:00N 52°39' E 005°36'0 0.4
2018-Dec-11 05:30N 52°40' E 005°36'0 0.0
2018-Dec-11 05:00N 52°40' E 005°36'0 0.0
2018-Dec-11 04:30N 52°40' E 005°36'0 0.0
2018-Dec-11 04:00N 52°40' E 005°36'0 0.0
2018-Dec-11 03:30N 52°40' E 005°36'0 0.0
2018-Dec-11 03:00N 52°40' E 005°36'0 0.0
2018-Dec-11 02:30N 52°40' E 005°36'0 0.0
2018-Dec-11 02:00N 52°40' E 005°36'0 0.0
2018-Dec-11 01:30N 52°40' E 005°36'0 0.0
2018-Dec-11 01:00N 52°40' E 005°36'0 0.0
2018-Dec-11 00:30N 52°40' E 005°36'0 0.0
2018-Dec-11 00:00N 52°40' E 005°36'0 0.0
2018-Dec-10 23:30N 52°40' E 005°36'0 0.0
2018-Dec-10 23:00N 52°40' E 005°36'0 0.0
2018-Dec-10 22:30N 52°40' E 005°36'0 0.0
2018-Dec-10 22:00N 52°40' E 005°36'0 0.0
2018-Dec-10 21:30N 52°40' E 005°36'0 0.0
2018-Dec-10 21:00N 52°40' E 005°36'0 0.0
2018-Dec-10 20:30N 52°40' E 005°36'0 0.0
2018-Dec-10 20:00N 52°40' E 005°36'0 0.0
2018-Dec-10 19:30N 52°40' E 005°36'0 0.0
2018-Dec-10 19:00N 52°40' E 005°36'0 0.0
2018-Dec-10 18:30N 52°40' E 005°36'0 0.0
2018-Dec-10 18:00N 52°40' E 005°36'0 0.0
2018-Dec-10 17:30N 52°40' E 005°36'0 0.0
2018-Dec-10 17:00N 52°40' E 005°36'0 0.0
2018-Dec-10 16:30N 52°40' E 005°36'0 0.0
2018-Dec-10 16:00N 52°40' E 005°36'0 0.0
2018-Dec-10 15:30N 52°40' E 005°36'0 0.0
2018-Dec-10 15:00N 52°40' E 005°36'0 0.0
2018-Dec-10 14:30N 52°40' E 005°36'0 0.0
2018-Dec-10 14:00N 52°40' E 005°36'0 0.0
2018-Dec-10 13:30N 52°40' E 005°36'0 0.0
2018-Dec-10 13:00N 52°40' E 005°36'0 0.0
2018-Dec-10 12:30N 52°40' E 005°36'0 0.0
2018-Dec-10 12:00N 52°40' E 005°36'0 0.0
2018-Dec-10 11:30N 52°40' E 005°36'0 0.0
2018-Dec-10 11:00N 52°40' E 005°36'0 0.0
2018-Dec-10 10:30N 52°40' E 005°36'0 0.0
2018-Dec-10 10:00N 52°40' E 005°36'0 0.0
2018-Dec-10 09:30N 52°40' E 005°36'0 0.0
2018-Dec-10 09:00N 52°40' E 005°36'0 0.0
2018-Dec-10 08:30N 52°40' E 005°36'0 0.0
2018-Dec-10 08:00N 52°40' E 005°36'0 0.0
2018-Dec-10 07:30N 52°40' E 005°36'0 0.0
2018-Dec-10 07:00N 52°40' E 005°36'0 0.0
2018-Dec-10 06:30N 52°40' E 005°36'0 0.0
2018-Dec-10 06:00N 52°40' E 005°36'0 0.0
2018-Dec-10 05:30N 52°40' E 005°36'0 0.0
2018-Dec-10 05:00N 52°40' E 005°36'0 0.0
2018-Dec-10 04:30N 52°40' E 005°36'0 0.0
2018-Dec-10 04:00N 52°40' E 005°36'0 0.0
2018-Dec-10 03:30N 52°40' E 005°36'0 0.0
2018-Dec-10 02:30N 52°40' E 005°36'0 0.0
2018-Dec-10 02:00N 52°40' E 005°36'0 0.0
2018-Dec-10 01:30N 52°40' E 005°36'0 0.0
2018-Dec-10 01:00N 52°40' E 005°36'0 0.0
2018-Dec-10 00:30N 52°40' E 005°36'0 0.0
2018-Dec-10 00:00N 52°40' E 005°36'0 0.0
2018-Dec-09 23:30N 52°40' E 005°36'0 0.0
2018-Dec-09 23:00N 52°40' E 005°36'0 0.0
2018-Dec-09 22:30N 52°40' E 005°36'0 0.0
2018-Dec-09 22:00N 52°40' E 005°36'0 0.0
2018-Dec-09 21:30N 52°40' E 005°36'0 0.0
2018-Dec-09 21:00N 52°40' E 005°36'0 0.0
2018-Dec-09 20:30N 52°40' E 005°36'0 0.0
2018-Dec-09 20:00N 52°40' E 005°36'0 0.0
2018-Dec-09 19:30N 52°40' E 005°36'0 0.0
2018-Dec-09 19:00N 52°40' E 005°36'0 0.0
2018-Dec-09 18:30N 52°40' E 005°36'0 0.0
2018-Dec-09 18:00N 52°40' E 005°36'0 0.0
2018-Dec-09 17:30N 52°40' E 005°36'0 0.0
2018-Dec-09 17:00N 52°40' E 005°36'0 0.0
2018-Dec-09 16:30N 52°40' E 005°36'0 0.0
2018-Dec-09 16:00N 52°40' E 005°36'0 0.0
2018-Dec-09 15:30N 52°40' E 005°36'0 0.0
2018-Dec-09 15:00N 52°40' E 005°36'0 0.0
2018-Dec-09 14:30N 52°40' E 005°36'0 0.0
2018-Dec-09 14:00N 52°40' E 005°36'0 0.0
2018-Dec-09 13:30N 52°40' E 005°36'0 0.0
2018-Dec-09 13:00N 52°40' E 005°36'0 0.0
2018-Dec-09 12:30N 52°40' E 005°36'0 0.0
2018-Dec-09 12:00N 52°40' E 005°36'0 0.0
2018-Dec-09 11:30N 52°40' E 005°36'0 0.0
2018-Dec-09 11:00N 52°40' E 005°36'0 0.0
2018-Dec-09 10:30N 52°40' E 005°36'0 0.0
2018-Dec-09 10:00N 52°40' E 005°36'0 0.0
2018-Dec-09 09:30N 52°40' E 005°36'0 0.0
2018-Dec-09 09:00N 52°40' E 005°36'0 0.0
2018-Dec-09 08:30N 52°40' E 005°36'0 0.0
2018-Dec-09 08:00N 52°40' E 005°36'0 0.0
2018-Dec-09 07:30N 52°40' E 005°36'0 0.0
2018-Dec-09 07:00N 52°40' E 005°36'0 0.0
2018-Dec-09 06:30N 52°40' E 005°36'0 0.0
2018-Dec-09 06:00N 52°40' E 005°36'0 0.0
2018-Dec-09 05:30N 52°40' E 005°36'0 0.0
2018-Dec-09 05:00N 52°40' E 005°36'0 0.0
2018-Dec-09 04:30N 52°40' E 005°36'0 0.0
2018-Dec-09 04:00N 52°40' E 005°36'0 0.0
2018-Dec-09 03:30N 52°40' E 005°36'0 0.0
2018-Dec-09 03:00N 52°40' E 005°36'0 0.0
2018-Dec-09 02:30N 52°40' E 005°36'0 0.0
2018-Dec-09 02:00N 52°40' E 005°36'0 0.0
2018-Dec-09 01:30N 52°40' E 005°36'0 0.0
2018-Dec-09 01:00N 52°40' E 005°36'0 0.0
2018-Dec-09 00:30N 52°40' E 005°36'0 0.0
2018-Dec-09 00:00N 52°40' E 005°36'0 0.0
2018-Dec-08 23:30N 52°40' E 005°36'0 0.0
2018-Dec-08 23:00N 52°40' E 005°36'0 0.0
2018-Dec-08 22:30N 52°40' E 005°36'0 0.0
2018-Dec-08 22:00N 52°40' E 005°36'0 0.0
2018-Dec-08 21:30N 52°40' E 005°36'0 0.0
2018-Dec-08 21:00N 52°40' E 005°36'0 0.0
2018-Dec-08 20:30N 52°40' E 005°36'0 0.0
2018-Dec-08 20:00N 52°40' E 005°36'0 0.0
2018-Dec-08 19:30N 52°40' E 005°36'0 0.0
2018-Dec-08 19:00N 52°40' E 005°36'0 0.0
2018-Dec-08 18:30N 52°40' E 005°36'0 0.0
2018-Dec-08 18:00N 52°40' E 005°36'0 0.0
2018-Dec-08 17:30N 52°40' E 005°36'0 0.0
2018-Dec-08 17:00N 52°40' E 005°36'0 0.0
2018-Dec-08 16:30N 52°40' E 005°36'0 0.0
2018-Dec-08 16:00N 52°40' E 005°36'0 0.0
2018-Dec-08 15:30N 52°40' E 005°36'0 0.0
2018-Dec-08 15:00N 52°40' E 005°36'0 0.0
2018-Dec-08 14:30N 52°40' E 005°36'0 0.0
2018-Dec-08 14:00N 52°40' E 005°36'0 0.0
2018-Dec-08 13:30N 52°40' E 005°36'0 0.0
2018-Dec-08 13:00N 52°40' E 005°36'0 0.0
2018-Dec-08 12:30N 52°40' E 005°36'0 0.0
2018-Dec-08 12:00N 52°40' E 005°36'0 0.0
2018-Dec-08 11:30N 52°40' E 005°36'0 0.0
2018-Dec-08 11:00N 52°40' E 005°36'0 0.0
2018-Dec-08 10:30N 52°40' E 005°36'0 0.0
2018-Dec-08 10:00N 52°40' E 005°36'0 0.0
2018-Dec-08 09:30N 52°40' E 005°36'0 0.0
2018-Dec-08 09:00N 52°40' E 005°36'0 0.0
2018-Dec-08 08:30N 52°40' E 005°36'0 0.0
2018-Dec-08 08:00N 52°40' E 005°36'0 0.0
2018-Dec-08 07:30N 52°40' E 005°36'0 0.0
2018-Dec-08 07:00N 52°40' E 005°36'0 0.0
2018-Dec-08 06:30N 52°40' E 005°36'0 0.0
2018-Dec-08 06:00N 52°40' E 005°36'0 0.0
2018-Dec-08 05:30N 52°40' E 005°36'0 0.0
2018-Dec-08 05:00N 52°40' E 005°36'0 0.0
2018-Dec-08 04:30N 52°40' E 005°36'0 0.0
2018-Dec-08 04:00N 52°40' E 005°36'0 0.0
2018-Dec-08 03:30N 52°40' E 005°36'0 0.0
2018-Dec-08 03:00N 52°40' E 005°36'0 0.0
2018-Dec-08 02:30N 52°40' E 005°36'0 0.0
2018-Dec-08 02:00N 52°40' E 005°36'0 0.0
2018-Dec-08 01:30N 52°40' E 005°36'0 0.0
2018-Dec-08 01:00N 52°40' E 005°36'0 0.0
2018-Dec-08 00:30N 52°40' E 005°36'0 0.0
2018-Dec-08 00:00N 52°40' E 005°36'0 0.0
2018-Dec-07 23:30N 52°40' E 005°36'0 0.0
2018-Dec-07 23:00N 52°40' E 005°36'0 0.0
2018-Dec-07 22:30N 52°40' E 005°36'0 0.0
2018-Dec-07 22:00N 52°40' E 005°36'0 0.0
2018-Dec-07 21:30N 52°40' E 005°36'0 0.0
2018-Dec-07 21:00N 52°40' E 005°36'0 0.0
2018-Dec-07 20:30N 52°40' E 005°36'0 0.0
2018-Dec-07 20:00N 52°40' E 005°36'0 0.0
2018-Dec-07 19:30N 52°40' E 005°36'0 0.0
2018-Dec-07 19:00N 52°40' E 005°36'0 0.0
2018-Dec-07 18:30N 52°40' E 005°36'0 0.0
2018-Dec-07 18:00N 52°40' E 005°36'0 0.0
2018-Dec-07 17:30N 52°40' E 005°36'0 0.0
2018-Dec-07 17:00N 52°40' E 005°36'0 0.0
2018-Dec-07 16:30N 52°40' E 005°36'0 0.0
2018-Dec-07 16:00N 52°40' E 005°36'0 0.0
2018-Dec-07 15:30N 52°40' E 005°36'0 0.0
2018-Dec-07 15:00N 52°40' E 005°36'0 0.0
2018-Dec-07 14:30N 52°40' E 005°36'0 0.0
2018-Dec-07 14:00N 52°40' E 005°36'0 0.0
2018-Dec-07 13:30N 52°40' E 005°36'0 0.0
2018-Dec-07 13:00N 52°40' E 005°36'0 0.0
2018-Dec-07 12:30N 52°40' E 005°36'0 0.0
2018-Dec-07 12:00N 52°40' E 005°36'0 0.0
2018-Dec-07 11:30N 52°40' E 005°36'0 0.0
2018-Dec-07 11:00N 52°40' E 005°36'0 0.0
2018-Dec-07 10:30N 52°40' E 005°36'0 0.0
2018-Dec-07 10:00N 52°40' E 005°36'0 0.0
2018-Dec-07 09:30N 52°40' E 005°36'0 0.0
2018-Dec-07 09:00N 52°40' E 005°36'0 0.0
2018-Dec-07 08:30N 52°40' E 005°36'0 0.0
2018-Dec-07 08:00N 52°40' E 005°36'0 0.0
2018-Dec-07 07:30N 52°40' E 005°36'0 0.0
2018-Dec-07 07:00N 52°40' E 005°36'0 0.0
2018-Dec-07 06:30N 52°40' E 005°36'0 0.0
2018-Dec-07 06:00N 52°40' E 005°36'0 0.0
2018-Dec-07 05:30N 52°40' E 005°36'0 0.0
2018-Dec-07 05:00N 52°40' E 005°36'0 0.0
2018-Dec-07 04:30N 52°40' E 005°36'0 0.0
2018-Dec-07 04:00N 52°40' E 005°36'0 0.0
2018-Dec-07 03:30N 52°40' E 005°36'0 0.0
2018-Dec-07 02:30N 52°40' E 005°36'0 0.0
2018-Dec-07 02:00N 52°40' E 005°36'0 0.0
2018-Dec-07 01:30N 52°40' E 005°36'0 0.0
2018-Dec-07 01:00N 52°40' E 005°36'0 0.0
2018-Dec-07 00:30N 52°40' E 005°36'0 0.0
2018-Dec-07 00:00N 52°40' E 005°36'0 0.0
2018-Dec-06 23:30N 52°40' E 005°36'0 0.0
2018-Dec-06 23:00N 52°40' E 005°36'0 0.0
2018-Dec-06 22:30N 52°40' E 005°36'0 0.0
2018-Dec-06 22:00N 52°40' E 005°36'0 0.0
2018-Dec-06 21:30N 52°40' E 005°36'0 0.0
2018-Dec-06 21:00N 52°40' E 005°36'0 0.0
2018-Dec-06 20:30N 52°40' E 005°36'0 0.0
2018-Dec-06 20:00N 52°40' E 005°36'0 0.0
2018-Dec-06 19:30N 52°40' E 005°36'0 0.0
2018-Dec-06 19:00N 52°40' E 005°36'0 0.0
2018-Dec-06 18:30N 52°40' E 005°36'0 0.0
2018-Dec-06 18:00N 52°40' E 005°36'0 0.0
2018-Dec-06 17:30N 52°40' E 005°36'0 0.0
2018-Dec-06 17:00N 52°40' E 005°36'0 0.0
2018-Dec-06 16:30N 52°40' E 005°36'0 0.0
2018-Dec-06 16:00N 52°40' E 005°36'0 0.0
2018-Dec-06 15:30N 52°40' E 005°36'0 0.0
2018-Dec-06 15:00N 52°40' E 005°36'0 0.0
2018-Dec-06 14:30N 52°40' E 005°36'0 0.0
2018-Dec-06 14:00N 52°40' E 005°36'0 0.0
2018-Dec-06 13:30N 52°40' E 005°36'0 0.0
2018-Dec-06 13:00N 52°40' E 005°36'0 0.0
2018-Dec-06 12:30N 52°40' E 005°36'0 0.0
2018-Dec-06 12:00N 52°40' E 005°36'0 0.0
2018-Dec-06 11:30N 52°40' E 005°36'0 0.0
2018-Dec-06 11:00N 52°40' E 005°36'0 0.0
2018-Dec-06 10:30N 52°40' E 005°36'0 0.0
2018-Dec-06 10:00N 52°40' E 005°36'0 0.0
2018-Dec-06 09:30N 52°40' E 005°36'0 0.0
2018-Dec-06 09:00N 52°40' E 005°36'0 0.0
2018-Dec-06 08:30N 52°40' E 005°36'0 0.0
2018-Dec-06 08:00N 52°40' E 005°36'0 0.0
2018-Dec-06 07:30N 52°40' E 005°36'0 0.0
2018-Dec-06 07:00N 52°40' E 005°36'0 0.0
2018-Dec-06 06:30N 52°40' E 005°36'0 0.0
2018-Dec-06 06:00N 52°40' E 005°36'0 0.0
2018-Dec-06 05:30N 52°40' E 005°36'0 0.0
2018-Dec-06 05:00N 52°40' E 005°36'0 0.0
2018-Dec-06 04:30N 52°40' E 005°36'0 0.0
2018-Dec-06 04:00N 52°40' E 005°36'0 0.0
2018-Dec-06 03:00N 52°40' E 005°36'0 0.0
2018-Dec-06 02:30N 52°40' E 005°36'0 0.0
2018-Dec-06 02:00N 52°40' E 005°36'0 0.0
2018-Dec-06 01:30N 52°40' E 005°36'0 0.0
2018-Dec-06 01:00N 52°40' E 005°36'0 0.0
2018-Dec-06 00:30N 52°40' E 005°36'0 0.0
2018-Dec-06 00:00N 52°40' E 005°36'0 0.0
2018-Dec-05 23:30N 52°40' E 005°36'0 0.0
2018-Dec-05 23:00N 52°40' E 005°36'0 0.0
2018-Dec-05 22:30N 52°40' E 005°36'0 0.0
2018-Dec-05 22:00N 52°40' E 005°36'0 0.0
2018-Dec-05 21:30N 52°40' E 005°36'0 0.0
2018-Dec-05 21:00N 52°40' E 005°36'0 0.0
2018-Dec-05 20:30N 52°40' E 005°36'0 0.0
2018-Dec-05 20:00N 52°40' E 005°36'0 0.0
2018-Dec-05 19:30N 52°40' E 005°36'0 0.0
2018-Dec-05 19:00N 52°40' E 005°36'0 0.0
2018-Dec-05 18:30N 52°40' E 005°36'0 0.0
2018-Dec-05 18:00N 52°40' E 005°36'0 0.0
2018-Dec-05 17:30N 52°40' E 005°36'0 0.0
2018-Dec-05 17:00N 52°40' E 005°36'0 0.0
2018-Dec-05 16:30N 52°40' E 005°36'0 0.0
2018-Dec-05 16:00N 52°40' E 005°36'0 0.0
2018-Dec-05 15:30N 52°40' E 005°36'0 0.0
2018-Dec-05 15:00N 52°40' E 005°36'0 0.0
2018-Dec-05 14:30N 52°40' E 005°36'0 0.0
2018-Dec-05 14:00N 52°40' E 005°36'0 0.0
2018-Dec-05 13:30N 52°40' E 005°36'0 0.0
2018-Dec-05 13:00N 52°40' E 005°36'0 0.0
2018-Dec-05 12:30N 52°40' E 005°36'0 0.0
2018-Dec-05 12:00N 52°40' E 005°36'0 0.0
2018-Dec-05 11:30N 52°40' E 005°36'0 0.0
2018-Dec-05 11:00N 52°40' E 005°36'0 0.0
2018-Dec-05 10:30N 52°40' E 005°36'0 0.0
2018-Dec-05 10:00N 52°40' E 005°36'0 0.0
2018-Dec-05 09:30N 52°40' E 005°36'0 0.0
2018-Dec-05 09:00N 52°40' E 005°36'0 0.0
2018-Dec-05 08:30N 52°40' E 005°36'0 0.0
2018-Dec-05 08:00N 52°40' E 005°36'0 0.0
2018-Dec-05 07:30N 52°40' E 005°36'0 0.0
2018-Dec-05 07:00N 52°40' E 005°36'0 0.0
2018-Dec-05 06:30N 52°40' E 005°36'0 0.0
2018-Dec-05 06:00N 52°40' E 005°36'0 0.0
2018-Dec-05 05:30N 52°40' E 005°36'0 0.0
2018-Dec-05 05:00N 52°40' E 005°36'0 0.0
2018-Dec-05 04:30N 52°40' E 005°36'0 0.0
2018-Dec-05 04:00N 52°40' E 005°36'0 0.0
2018-Dec-05 03:30N 52°40' E 005°36'0 0.0
2018-Dec-05 03:00N 52°40' E 005°36'0 0.0
2018-Dec-05 02:30N 52°40' E 005°36'0 0.0
2018-Dec-05 02:00N 52°40' E 005°36'0 0.0
2018-Dec-05 01:30N 52°40' E 005°36'0 0.0
2018-Dec-05 01:00N 52°40' E 005°36'0 0.0
2018-Dec-05 00:30N 52°40' E 005°36'0 0.0
2018-Dec-05 00:00N 52°40' E 005°36'0 0.0
2018-Dec-04 23:30N 52°40' E 005°36'0 0.0
2018-Dec-04 23:00N 52°40' E 005°36'0 0.0
2018-Dec-04 22:30N 52°40' E 005°36'0 0.0
2018-Dec-04 22:00N 52°40' E 005°36'0 0.0
2018-Dec-04 21:30N 52°40' E 005°36'0 0.0
2018-Dec-04 21:00N 52°40' E 005°36'0 0.0
2018-Dec-04 20:30N 52°40' E 005°36'0 0.0
2018-Dec-04 20:00N 52°40' E 005°36'0 0.0
2018-Dec-04 19:30N 52°40' E 005°36'0 0.0
2018-Dec-04 19:00N 52°40' E 005°36'0 0.0
2018-Dec-04 18:30N 52°40' E 005°36'0 0.0
2018-Dec-04 18:00N 52°40' E 005°36'0 0.0
2018-Dec-04 17:30N 52°40' E 005°36'0 0.0
2018-Dec-04 17:00N 52°40' E 005°36'0 0.0
2018-Dec-04 16:30N 52°40' E 005°36'0 0.0
2018-Dec-04 16:00N 52°40' E 005°36'0 0.0
2018-Dec-04 15:30N 52°40' E 005°36'0 0.0
2018-Dec-04 15:00N 52°40' E 005°36'0 0.0
2018-Dec-04 14:30N 52°40' E 005°36'0 0.0
2018-Dec-04 14:00N 52°40' E 005°36'0 0.0
2018-Dec-04 13:30N 52°40' E 005°36'0 0.0
2018-Dec-04 13:00N 52°40' E 005°36'0 0.0
2018-Dec-04 12:30N 52°40' E 005°36'0 0.0
2018-Dec-04 12:00N 52°40' E 005°36'0 0.0
2018-Dec-04 11:30N 52°40' E 005°36'0 0.0
2018-Dec-04 11:00N 52°40' E 005°36'0 0.0
2018-Dec-04 10:30N 52°40' E 005°36'0 0.0
2018-Dec-04 10:00N 52°40' E 005°36'0 0.0
2018-Dec-04 09:30N 52°40' E 005°36'0 0.0
2018-Dec-04 09:00N 52°40' E 005°36'0 0.0
2018-Dec-04 08:30N 52°40' E 005°36'0 0.0
2018-Dec-04 08:00N 52°40' E 005°36'0 0.0
2018-Dec-04 07:30N 52°40' E 005°36'0 0.0
2018-Dec-04 07:00N 52°40' E 005°36'0 0.0
2018-Dec-04 06:30N 52°40' E 005°36'0 0.0
2018-Dec-04 06:00N 52°40' E 005°36'0 0.0
2018-Dec-04 05:30N 52°40' E 005°36'0 0.0
2018-Dec-04 05:00N 52°40' E 005°36'0 0.0
2018-Dec-04 04:30N 52°40' E 005°36'0 0.0
2018-Dec-04 04:00N 52°40' E 005°36'0 0.0
2018-Dec-04 03:30N 52°40' E 005°36'0 0.0
2018-Dec-04 03:00N 52°40' E 005°36'0 0.0
2018-Dec-04 02:30N 52°40' E 005°36'0 0.0
2018-Dec-04 02:00N 52°40' E 005°36'0 0.0
2018-Dec-04 01:30N 52°40' E 005°36'0 0.0
2018-Dec-04 01:00N 52°40' E 005°36'0 0.0
2018-Dec-04 00:30N 52°40' E 005°36'0 0.0
2018-Dec-04 00:00N 52°40' E 005°36'0 0.0
2018-Dec-03 23:30N 52°40' E 005°36'0 0.0
2018-Dec-03 23:00N 52°40' E 005°36'0 0.0
2018-Dec-03 22:30N 52°40' E 005°36'0 0.0
2018-Dec-03 22:00N 52°40' E 005°36'0 0.0
2018-Dec-03 21:30N 52°40' E 005°36'0 0.0
2018-Dec-03 21:00N 52°40' E 005°36'0 0.0
2018-Dec-03 20:30N 52°40' E 005°36'0 0.0
2018-Dec-03 20:00N 52°40' E 005°36'0 0.0
2018-Dec-03 19:30N 52°40' E 005°36'0 0.0
2018-Dec-03 19:00N 52°40' E 005°36'0 0.0
2018-Dec-03 18:30N 52°40' E 005°36'0 0.0
2018-Dec-03 18:00N 52°40' E 005°36'0 0.0
2018-Dec-03 17:30N 52°40' E 005°36'0 0.0
2018-Dec-03 17:00N 52°40' E 005°36'0 0.0
2018-Dec-03 16:30N 52°40' E 005°36'0 0.0
2018-Dec-03 16:00N 52°40' E 005°36'0 0.1
2018-Dec-03 15:28N 52°40' E 005°36'0 0.0
2018-Dec-03 14:58N 52°40' E 005°36'0 0.0
2018-Dec-03 14:28N 52°40' E 005°36'0 0.0
2018-Dec-03 13:58N 52°40' E 005°36'0 0.0
2018-Dec-03 13:28N 52°40' E 005°36'0 0.0
2018-Dec-03 13:00N 52°40' E 005°36'2 3.2
2018-Dec-03 12:30N 52°39' E 005°33'4 7.3
2018-Dec-03 12:00N 52°42' E 005°29'4 7.3
2018-Dec-03 11:31N 52°44' E 005°24'4 7.2
2018-Dec-03 11:01N 52°46' E 005°20'3 6.2
2018-Dec-03 10:31N 52°49' E 005°18'3 6.3
2018-Dec-03 10:01N 52°53' E 005°19'3 6.3
2018-Dec-03 09:30N 52°56' E 005°19'3 6.4
2018-Dec-03 09:01N 52°59' E 005°19'3 5.9
2018-Dec-03 08:31N 53°02' E 005°21'2 4.1
2018-Dec-03 07:58N 53°04' E 005°20'0 0.0
2018-Dec-03 07:28N 53°04' E 005°20'0 0.0
2018-Dec-03 06:58N 53°04' E 005°20'0 0.0
2018-Dec-03 06:28N 53°04' E 005°20'0 0.0
2018-Dec-03 05:58N 53°04' E 005°20'0 0.0
2018-Dec-03 05:28N 53°04' E 005°20'0 0.0
2018-Dec-03 04:58N 53°04' E 005°20'0 0.0
2018-Dec-03 04:28N 53°04' E 005°20'0 0.0
2018-Dec-03 03:58N 53°04' E 005°20'0 0.0
2018-Dec-03 03:28N 53°04' E 005°20'0 0.0
2018-Dec-03 02:58N 53°04' E 005°20'0 0.0
2018-Dec-03 02:28N 53°04' E 005°20'0 0.0
2018-Dec-03 01:58N 53°04' E 005°20'0 0.0
2018-Dec-03 01:28N 53°04' E 005°20'0 0.0
2018-Dec-03 00:55N 53°04' E 005°20'0 0.0
2018-Dec-03 00:28N 53°04' E 005°20'0 0.0
2018-Dec-02 23:58N 53°04' E 005°20'0 0.0
2018-Dec-02 23:28N 53°04' E 005°20'0 0.0
2018-Dec-02 22:58N 53°04' E 005°20'0 0.0
2018-Dec-02 22:28N 53°04' E 005°20'0 0.0
2018-Dec-02 21:58N 53°04' E 005°20'0 0.0
2018-Dec-02 21:28N 53°04' E 005°20'0 0.0
2018-Dec-02 20:58N 53°04' E 005°20'0 0.0
2018-Dec-02 20:28N 53°04' E 005°20'0 0.0
2018-Dec-02 19:58N 53°04' E 005°20'0 0.0
2018-Dec-02 19:28N 53°04' E 005°20'0 0.0
2018-Dec-02 18:58N 53°04' E 005°20'0 0.0
2018-Dec-02 18:28N 53°04' E 005°20'0 0.0
2018-Dec-02 17:58N 53°04' E 005°20'0 0.0
2018-Dec-02 17:28N 53°04' E 005°20'0 0.0
2018-Dec-02 16:58N 53°04' E 005°20'0 0.0
2018-Dec-02 16:28N 53°04' E 005°20'0 0.3
2018-Dec-02 16:00N 53°04' E 005°20'1 1.7
2018-Dec-02 15:30N 53°05' E 005°20'3 5.4
2018-Dec-02 15:00N 53°07' E 005°22'3 6.3
2018-Dec-02 14:30N 53°10' E 005°24'1 1.2
2018-Dec-02 13:58N 53°11' E 005°25'0 0.0
2018-Dec-02 13:28N 53°11' E 005°25'  

Dump ship's entire track history